Circleville, West Virginia
Current Conditions -  °F | °C
As of 6:51 AM on Saturday 20 Dec 2014 (Local Time) from KEKN Reporting Station
Overcast Overcast  
Wind Chill: 24°   Ceiling: 1600
Heat Index: 24°   Visibility: 10mi
Dew Point: 21°   Wind: 3mph
Humidity: 88%   Direction: 210°SSW
Pressure: 30.21"   Gusts: NA
Location:  38.67°N, 79.49°W
Report Text: KEKN 201151Z AUTO 21003KT 10SM OVC016 M04/M06 A3021 RMK AO2 SLP259 T10441061 11033 21050 51012 TSNO $
Loading
Personal Weather Stations






























Interactive Weather Map New forecast layout! Learn more

10-Day Weather Forecast

Advertisements
Track Severe Weather on mobile